Time;durP1;ratioP1;P1;durP2;ratioP2;P2;SDS_P1;SDS_P2;PMS_P1;PMS_P2;Temp;Humidity;BMP_temperature;BMP_pressure;BME280_temperature;BME280_humidity;BME280_pressure;Samples;Min_cycle;Max_cycle;Signal;HPM_P1;HPM_P2
2023/03/08 00:01:36;;;;;;;8.03;5.83;;;;;;;7.21;56.24;100153.34;5067537;28;20020;-69
2023/03/08 00:04:02;;;;;;;15.37;7.07;;;;;;;8.00;52.85;100157.00;5068805;28;20395;-70
2023/03/08 00:06:28;;;;;;;16.07;7.83;;;;;;;8.32;52.54;100161.84;5067384;28;20073;-70
2023/03/08 00:08:58;;;;;;;14.43;7.30;;;;;;;7.43;55.99;100147.97;5065548;28;20024;-71
2023/03/08 00:11:24;;;;;;;16.63;6.73;;;;;;;8.39;52.88;100144.41;5069604;28;20020;-69
2023/03/08 00:13:50;;;;;;;9.23;5.80;;;;;;;8.61;52.03;100132.00;5068741;28;20032;-70
2023/03/08 00:16:15;;;;;;;17.77;6.80;;;;;;;8.90;51.43;100134.25;5072030;28;20023;-69
2023/03/08 00:18:41;;;;;;;13.97;7.00;;;;;;;9.10;50.32;100135.69;5068701;28;20488;-69
2023/03/08 00:21:13;;;;;;;26.10;12.63;;;;;;;9.07;50.57;100141.81;5065015;28;20021;-70
2023/03/08 00:23:39;;;;;;;18.67;8.35;;;;;;;8.99;49.56;100149.72;5070074;28;20025;-69
2023/03/08 00:26:04;;;;;;;9.23;5.57;;;;;;;9.31;49.64;100144.91;5069075;28;20035;-70
2023/03/08 00:28:30;;;;;;;6.87;4.00;;;;;;;9.26;49.47;100142.38;5069953;28;20043;-69
2023/03/08 00:31:02;;;;;;;4.73;2.40;;;;;;;8.30;52.17;100148.84;5070423;28;20161;-70
2023/03/08 00:33:28;;;;;;;3.90;2.40;;;;;;;8.78;49.78;100150.91;5070804;28;20063;-69
2023/03/08 00:36:06;;;;;;;7.30;3.90;;;;;;;9.12;49.54;100139.13;5070224;28;20024;-70
2023/03/08 00:38:33;;;;;;;13.87;3.90;;;;;;;8.92;49.76;100127.25;5070765;28;20032;-69
2023/03/08 00:40:59;;;;;;;8.93;3.83;;;;;;;8.83;49.78;100127.38;5064519;28;20369;-70
2023/03/08 00:43:25;;;;;;;7.97;3.83;;;;;;;8.28;51.63;100129.78;5071638;28;20036;-70
2023/03/08 00:45:50;;;;;;;6.97;4.07;;;;;;;8.55;50.51;100122.53;5066424;28;20072;-69
2023/03/08 00:48:15;;;;;;;5.23;4.10;;;;;;;8.44;50.76;100116.56;5050865;28;20132;-70
2023/03/08 00:50:41;;;;;;;9.77;4.37;;;;;;;8.88;49.46;100120.34;5071210;28;20475;-70
2023/03/08 00:53:07;;;;;;;13.40;4.53;;;;;;;8.80;49.68;100117.00;5066519;28;20033;-70
2023/03/08 00:55:33;;;;;;;7.50;4.20;;;;;;;8.62;49.80;100113.75;5062149;28;20032;-69
2023/03/08 00:57:59;;;;;;;9.40;4.30;;;;;;;8.32;50.27;100114.97;5067797;28;20171;-70
2023/03/08 01:00:24;;;;;;;6.97;4.27;;;;;;;8.09;50.41;100117.84;5070911;28;20119;-70
2023/03/08 01:02:50;;;;;;;8.90;4.10;;;;;;;7.87;51.74;100112.91;5068942;28;20157;-70
2023/03/08 01:05:15;;;;;;;6.17;3.93;;;;;;;8.02;50.81;100113.59;5072024;28;20472;-69
2023/03/08 01:07:40;;;;;;;12.87;4.17;;;;;;;8.29;49.73;100100.25;5068650;28;20081;-69
2023/03/08 01:10:06;;;;;;;7.90;3.70;;;;;;;8.30;49.98;100101.13;5070686;28;20040;-70
2023/03/08 01:12:33;;;;;;;9.10;4.20;;;;;;;8.52;49.59;100095.66;5069155;28;20025;-69
2023/03/08 01:14:59;;;;;;;5.77;3.67;;;;;;;8.73;48.56;100099.72;5069963;28;20034;-70
2023/03/08 01:17:24;;;;;;;7.83;3.40;;;;;;;8.55;48.55;100088.69;5070254;28;20399;-69
2023/03/08 01:19:49;;;;;;;10.77;3.60;;;;;;;8.95;48.48;100079.44;5067197;28;20036;-70
2023/03/08 01:22:15;;;;;;;10.80;4.37;;;;;;;8.61;49.13;100069.50;5063151;28;20023;-69
2023/03/08 01:24:45;;;;;;;5.97;3.17;;;;;;;8.40;49.36;100075.84;5069084;28;20040;-70
2023/03/08 01:27:10;;;;;;;11.27;3.47;;;;;;;8.80;48.97;100070.09;5068846;28;20510;-70
2023/03/08 01:29:36;;;;;;;8.90;4.13;;;;;;;8.54;49.02;100063.50;5069981;28;20048;-70
2023/03/08 01:32:02;;;;;;;6.50;3.10;;;;;;;8.72;49.63;100056.31;5069205;28;20029;-69
2023/03/08 01:34:27;;;;;;;7.47;4.23;;;;;;;8.43;48.84;100071.41;5069953;28;20028;-69
2023/03/08 01:36:52;;;;;;;7.67;3.33;;;;;;;8.73;48.75;100050.22;5066883;28;20078;-70
2023/03/08 01:39:18;;;;;;;6.37;3.20;;;;;;;8.76;48.09;100053.63;5062029;28;20085;-69
2023/03/08 01:41:43;;;;;;;8.10;3.63;;;;;;;8.44;48.52;100046.25;5067808;28;20143;-69
2023/03/08 01:44:17;;;;;;;6.23;3.17;;;;;;;8.62;48.51;100046.00;5068096;28;20039;-70
2023/03/08 01:46:42;;;;;;;9.40;3.27;;;;;;;8.39;49.13;100035.03;5058832;28;20119;-70
2023/03/08 01:49:29;;;;;;;5.73;3.03;;;;;;;7.68;50.36;100043.69;5067685;28;20122;-70
2023/03/08 01:52:05;;;;;;;9.30;3.00;;;;;;;7.89;50.44;100047.81;5082770;28;20032;-71
2023/03/08 01:54:38;;;;;;;5.40;2.73;;;;;;;7.93;50.25;100045.16;5069176;28;20036;-70
2023/03/08 01:57:10;;;;;;;10.47;3.40;;;;;;;7.53;50.83;100045.59;5061811;28;20032;-69
2023/03/08 01:59:37;;;;;;;5.63;3.03;;;;;;;7.54;50.85;100039.53;5064423;28;20092;-70
2023/03/08 02:02:03;;;;;;;7.57;3.27;;;;;;;7.56;51.15;100027.34;5064527;28;20415;-69
2023/03/08 02:04:29;;;;;;;5.57;3.37;;;;;;;7.78;51.18;100022.78;5053257;28;20021;-70
2023/03/08 02:06:55;;;;;;;6.10;4.20;;;;;;;7.36;52.99;100031.88;5069057;28;20047;-70
2023/03/08 02:09:21;;;;;;;9.40;3.83;;;;;;;7.34;53.02;100028.47;5068552;28;20487;-69
2023/03/08 02:11:47;;;;;;;6.80;4.07;;;;;;;8.02;51.36;100027.69;5059209;28;20115;-69
2023/03/08 02:14:13;;;;;;;9.77;4.40;;;;;;;7.33;52.78;100021.53;5069700;28;20032;-70
2023/03/08 02:16:38;;;;;;;7.00;4.03;;;;;;;8.06;51.50;100013.78;5068752;28;20028;-70
2023/03/08 02:19:13;;;;;;;5.47;4.30;;;;;;;8.14;50.48;100006.72;5067611;28;20044;-69
2023/03/08 02:21:38;;;;;;;14.20;4.50;;;;;;;8.55;50.16;99999.25;5055735;28;20388;-69
2023/03/08 02:24:06;;;;;;;7.83;4.73;;;;;;;8.35;50.60;99989.09;5068224;28;20028;-70
2023/03/08 02:26:34;;;;;;;14.43;5.40;;;;;;;8.32;50.32;99996.06;5084666;28;20020;-69
2023/03/08 02:29:00;;;;;;;7.67;4.63;;;;;;;8.33;50.67;99989.97;5059676;28;21267;-70
2023/03/08 02:31:25;;;;;;;8.87;5.13;;;;;;;8.60;49.63;99985.28;5067330;28;20024;-70
2023/03/08 02:33:50;;;;;;;8.10;5.60;;;;;;;8.54;50.00;99980.16;5066875;28;20040;-70
2023/03/08 02:36:16;;;;;;;11.30;6.20;;;;;;;8.63;49.29;99982.63;5067581;28;20028;-70
2023/03/08 02:38:41;;;;;;;9.40;5.20;;;;;;;8.23;49.69;99983.19;5065839;28;20024;-69
2023/03/08 02:41:07;;;;;;;11.27;5.07;;;;;;;8.11;50.82;99983.34;5066915;28;20027;-70
2023/03/08 02:43:32;;;;;;;7.43;4.87;;;;;;;8.30;49.71;99986.56;5080507;28;20031;-69
2023/03/08 02:45:58;;;;;;;10.13;5.50;;;;;;;8.26;50.20;99987.50;5063138;28;20039;-70
2023/03/08 02:48:23;;;;;;;7.40;5.23;;;;;;;8.33;49.86;99986.50;5068197;28;20024;-70
2023/03/08 02:50:48;;;;;;;10.33;5.63;;;;;;;8.08;50.38;99997.25;5066321;28;20817;-70
2023/03/08 02:53:14;;;;;;;13.80;5.27;;;;;;;7.91;51.17;99999.22;5067143;28;20040;-70
2023/03/08 02:55:39;;;;;;;12.20;7.50;;;;;;;7.36;52.32;99995.50;5068956;28;20025;-70
2023/03/08 02:58:06;;;;;;;13.07;6.90;;;;;;;7.79;51.34;99990.69;5067186;28;20390;-69
2023/03/08 03:00:32;;;;;;;14.60;7.20;;;;;;;8.03;51.87;99990.41;5067941;28;20025;-69
2023/03/08 03:02:57;;;;;;;13.10;7.10;;;;;;;8.13;51.09;99984.16;5068164;28;20027;-69
2023/03/08 03:05:23;;;;;;;17.47;8.77;;;;;;;8.16;50.43;99968.53;5066876;28;20020;-69
2023/03/08 03:07:48;;;;;;;17.60;9.23;;;;;;;8.17;50.44;99954.63;5066530;28;20671;-70
2023/03/08 03:10:14;;;;;;;18.20;8.70;;;;;;;8.23;50.60;99951.94;5067570;28;20388;-72
2023/03/08 03:12:40;;;;;;;21.63;12.80;;;;;;;8.14;50.89;99952.06;5066834;28;20027;-70
2023/03/08 03:15:06;;;;;;;22.50;10.10;;;;;;;8.10;51.19;99947.78;5068516;28;20555;-69
2023/03/08 03:17:32;;;;;;;19.17;11.27;;;;;;;8.29;50.61;99940.56;5066750;28;20476;-69
2023/03/08 03:19:58;;;;;;;24.47;11.47;;;;;;;8.23;51.32;99941.53;5064439;28;20097;-69
2023/03/08 03:22:23;;;;;;;20.50;11.37;;;;;;;8.31;50.97;99931.84;5067225;28;20020;-69
2023/03/08 03:24:51;;;;;;;23.20;11.60;;;;;;;8.33;50.84;99924.88;5066857;28;20297;-69
2023/03/08 03:27:18;;;;;;;19.53;11.63;;;;;;;8.21;51.03;99925.06;5064224;28;20495;-70
2023/03/08 03:29:44;;;;;;;34.17;14.77;;;;;;;8.41;50.85;99918.69;5068697;28;20016;-69
2023/03/08 03:32:09;;;;;;;41.93;14.97;;;;;;;8.37;51.33;99914.44;5066939;28;20029;-69
2023/03/08 03:34:35;;;;;;;31.73;16.60;;;;;;;8.31;51.62;99905.81;5068100;28;20450;-72
2023/03/08 03:37:00;;;;;;;41.53;15.90;;;;;;;8.11;52.17;99897.44;5063782;28;20025;-69
2023/03/08 03:39:26;;;;;;;32.73;15.73;;;;;;;8.35;52.58;99890.97;5066240;28;20035;-69
2023/03/08 03:41:51;;;;;;;37.77;14.90;;;;;;;8.37;51.36;99888.38;5065864;28;20476;-70
2023/03/08 03:44:16;;;;;;;29.70;14.30;;;;;;;8.22;52.67;99889.47;5066826;28;20033;-69
2023/03/08 03:46:42;;;;;;;30.23;14.70;;;;;;;8.04;51.67;99893.22;5052312;28;20045;-69
2023/03/08 03:49:07;;;;;;;32.33;16.27;;;;;;;8.21;51.73;99893.81;5067070;28;20060;-70
2023/03/08 03:51:33;;;;;;;35.37;16.77;;;;;;;8.48;51.17;99887.34;5056790;28;20016;-69
2023/03/08 03:53:58;;;;;;;31.07;15.80;;;;;;;8.30;51.76;99892.81;5065710;28;20032;-70
2023/03/08 03:56:26;;;;;;;30.93;17.77;;;;;;;8.21;52.78;99891.19;5065641;28;20062;-69
2023/03/08 03:58:52;;;;;;;30.47;16.27;;;;;;;8.49;50.98;99888.22;5065487;28;20024;-69
2023/03/08 04:01:26;;;;;;;32.17;18.43;;;;;;;8.81;50.93;99889.41;5065237;28;20032;-70
2023/03/08 04:03:53;;;;;;;36.20;18.50;;;;;;;8.79;50.41;99880.75;5065804;28;20055;-69
2023/03/08 04:06:21;;;;;;;44.47;21.87;;;;;;;7.83;53.19;99887.44;5065449;28;20021;-70
2023/03/08 04:08:47;;;;;;;38.83;20.80;;;;;;;7.45;55.29;99875.78;5047686;28;20040;-70
2023/03/08 04:11:15;;;;;;;40.50;19.20;;;;;;;7.15;55.45;99877.88;5065980;28;20025;-70
2023/03/08 04:13:41;;;;;;;41.60;20.53;;;;;;;7.20;56.09;99886.47;5067870;28;20485;-69
2023/03/08 04:16:22;;;;;;;47.77;20.83;;;;;;;6.87;57.11;99878.16;5065805;28;20021;-69
2023/03/08 04:18:51;;;;;;;39.07;19.93;;;;;;;6.93;58.85;99872.03;5065503;28;20047;-69
2023/03/08 04:21:16;;;;;;;46.70;19.63;;;;;;;7.51;56.73;99861.84;5063784;28;20028;-69
2023/03/08 04:23:42;;;;;;;48.27;20.90;;;;;;;7.69;56.13;99852.94;5064635;28;20472;-69
2023/03/08 04:26:07;;;;;;;56.30;22.00;;;;;;;7.63;55.65;99849.53;5057599;28;20538;-69
2023/03/08 04:28:33;;;;;;;57.30;23.10;;;;;;;7.75;56.29;99845.06;5066800;28;20024;-69
2023/03/08 04:31:00;;;;;;;51.77;24.23;;;;;;;8.11;54.76;99841.03;5064368;28;20419;-69
2023/03/08 04:33:25;;;;;;;56.50;23.87;;;;;;;7.58;55.75;99833.16;5066623;28;20070;-69
2023/03/08 04:35:51;;;;;;;57.27;24.83;;;;;;;8.07;54.82;99828.09;5065121;28;20032;-70
2023/03/08 04:38:16;;;;;;;48.23;23.33;;;;;;;8.23;53.79;99815.69;5066949;28;20032;-69
2023/03/08 04:41:00;;;;;;;55.83;24.10;;;;;;;7.77;54.14;99819.88;5059100;28;20535;-70
2023/03/08 04:43:26;;;;;;;67.57;27.37;;;;;;;7.75;55.91;99813.84;5068305;28;20033;-69
2023/03/08 04:45:52;;;;;;;63.77;25.13;;;;;;;7.23;56.04;99816.25;5064256;28;20032;-69
2023/03/08 04:48:17;;;;;;;58.43;24.83;;;;;;;8.10;53.57;99822.84;5067763;28;20032;-69
2023/03/08 04:50:43;;;;;;;63.57;25.83;;;;;;;8.23;53.60;99824.38;5064944;28;20028;-70
2023/03/08 04:53:08;;;;;;;52.93;24.63;;;;;;;8.41;53.00;99814.53;5064934;28;20028;-69
2023/03/08 04:55:35;;;;;;;58.33;27.17;;;;;;;8.44;52.96;99796.25;5066230;28;20328;-70
2023/03/08 04:58:01;;;;;;;53.97;24.73;;;;;;;8.00;53.61;99790.06;5055058;28;20070;-69
2023/03/08 05:00:27;;;;;;;53.37;24.43;;;;;;;8.82;52.17;99790.34;5067052;28;20051;-69
2023/03/08 05:02:52;;;;;;;59.00;26.47;;;;;;;9.02;52.08;99783.03;5068129;28;20440;-69
2023/03/08 05:05:17;;;;;;;56.17;25.73;;;;;;;8.66;51.63;99776.75;5069442;28;20035;-69
2023/03/08 05:07:43;;;;;;;56.77;26.47;;;;;;;8.89;52.85;99770.25;5069133;28;20142;-70
2023/03/08 05:10:09;;;;;;;62.60;27.07;;;;;;;8.60;52.55;99774.28;5069019;28;20043;-69
2023/03/08 05:12:34;;;;;;;62.77;27.97;;;;;;;8.33;52.85;99766.03;5055457;28;20416;-69
2023/03/08 05:14:59;;;;;;;65.53;27.73;;;;;;;8.05;53.38;99772.59;5050286;28;20028;-72
2023/03/08 05:17:25;;;;;;;64.50;27.73;;;;;;;7.95;54.47;99769.28;5060467;28;20464;-69
2023/03/08 05:19:50;;;;;;;66.50;28.83;;;;;;;7.96;55.66;99764.06;5057168;28;20067;-69
2023/03/08 05:22:15;;;;;;;62.90;28.17;;;;;;;8.46;54.29;99752.81;5070694;28;20103;-70
2023/03/08 05:24:41;;;;;;;65.87;27.40;;;;;;;8.11;54.56;99741.28;5068444;28;20026;-69
2023/03/08 05:27:07;;;;;;;68.87;29.40;;;;;;;7.74;55.14;99736.69;5068509;28;20020;-69
2023/03/08 05:29:33;;;;;;;80.97;31.23;;;;;;;7.15;58.04;99726.28;5069827;28;20024;-70
2023/03/08 05:32:01;;;;;;;68.70;29.63;;;;;;;7.52;57.47;99721.41;5067774;28;20032;-69
2023/03/08 05:34:27;;;;;;;80.87;31.73;;;;;;;7.89;55.42;99719.97;5066582;28;20508;-70
2023/03/08 05:36:52;;;;;;;69.03;30.27;;;;;;;7.77;56.83;99710.59;5065838;28;20028;-70
2023/03/08 05:39:18;;;;;;;67.03;29.23;;;;;;;7.78;55.22;99714.94;5069240;28;20388;-70
2023/03/08 05:41:43;;;;;;;71.30;28.97;;;;;;;7.58;57.35;99710.03;5068045;28;20066;-73
2023/03/08 05:44:08;;;;;;;67.10;28.33;;;;;;;7.81;55.98;99720.06;5068481;28;20032;-70
2023/03/08 05:46:36;;;;;;;58.33;27.60;;;;;;;7.99;55.33;99708.50;5067660;28;20514;-70
2023/03/08 05:49:02;;;;;;;76.70;31.70;;;;;;;7.85;56.46;99713.94;5068232;28;20123;-70
2023/03/08 05:51:27;;;;;;;83.50;30.47;;;;;;;7.23;56.14;99704.47;5054815;28;20035;-70
2023/03/08 05:53:53;;;;;;;70.93;30.03;;;;;;;7.60;56.47;99703.94;5065462;28;20033;-70
2023/03/08 05:56:21;;;;;;;65.93;28.73;;;;;;;7.27;55.54;99706.16;5070269;28;20042;-70
2023/03/08 05:58:47;;;;;;;86.83;31.03;;;;;;;7.71;56.33;99692.50;5069414;28;20040;-71
2023/03/08 06:01:18;;;;;;;84.03;32.10;;;;;;;7.30;56.58;99690.50;5061755;28;20374;-70
2023/03/08 06:03:45;;;;;;;89.03;32.57;;;;;;;7.51;56.57;99682.41;5051529;28;20021;-70
2023/03/08 06:06:11;;;;;;;78.77;30.70;;;;;;;7.62;56.56;99686.56;5060886;28;20045;-70
2023/03/08 06:08:37;;;;;;;84.57;28.77;;;;;;;7.70;55.92;99688.19;5066747;28;20028;-70
2023/03/08 06:11:02;;;;;;;72.90;28.57;;;;;;;7.40;56.24;99690.38;5063444;28;20036;-71
2023/03/08 06:13:28;;;;;;;99.87;30.03;;;;;;;7.25;56.16;99689.75;5053219;28;20560;-70
2023/03/08 06:15:55;;;;;;;93.43;29.43;;;;;;;7.55;56.75;99684.94;5060932;28;20035;-70
2023/03/08 06:18:21;;;;;;;92.80;29.27;;;;;;;7.05;56.73;99683.97;5056523;28;20055;-70
2023/03/08 06:20:56;;;;;;;117.90;32.83;;;;;;;6.43;57.99;99688.19;5052101;28;20480;-70
2023/03/08 06:23:21;;;;;;;93.83;30.73;;;;;;;7.78;55.73;99686.31;5067802;28;20364;-70
2023/03/08 06:25:47;;;;;;;78.07;30.57;;;;;;;7.87;54.58;99688.78;5068987;28;20109;-70
2023/03/08 06:28:12;;;;;;;100.67;35.07;;;;;;;7.23;57.22;99694.09;5059747;28;20055;-70
2023/03/08 06:30:38;;;;;;;79.03;31.23;;;;;;;7.72;55.03;99684.69;5068815;28;20499;-70
2023/03/08 06:33:03;;;;;;;81.03;31.50;;;;;;;7.89;55.61;99688.75;5068087;28;20151;-70
2023/03/08 06:35:28;;;;;;;79.47;30.57;;;;;;;7.91;53.83;99685.22;5068912;28;20119;-70
2023/03/08 06:37:54;;;;;;;84.70;31.37;;;;;;;8.20;54.74;99683.84;5065343;28;20036;-71
2023/03/08 06:40:19;;;;;;;94.00;31.67;;;;;;;7.91;54.81;99686.94;5069600;28;20125;-70
2023/03/08 06:42:45;;;;;;;77.70;31.50;;;;;;;8.66;52.81;99680.34;5067387;28;20036;-70
2023/03/08 06:45:10;;;;;;;103.23;33.17;;;;;;;7.84;55.44;99681.00;5056624;28;20059;-71
2023/03/08 06:47:36;;;;;;;98.23;36.33;;;;;;;8.50;53.27;99678.94;5064985;28;20135;-70
2023/03/08 06:50:01;;;;;;;88.13;32.00;;;;;;;8.25;54.59;99675.94;5067961;28;20072;-70
2023/03/08 06:52:26;;;;;;;95.97;31.97;;;;;;;8.06;55.10;99680.63;5066708;28;20491;-71
2023/03/08 06:54:52;;;;;;;108.03;33.50;;;;;;;7.66;56.01;99678.72;5066567;28;20040;-70
2023/03/08 06:57:17;;;;;;;100.70;34.53;;;;;;;8.01;56.53;99679.84;5065345;28;20289;-71
2023/03/08 06:59:42;;;;;;;117.33;35.27;;;;;;;7.90;56.10;99674.81;5067323;28;20035;-71
2023/03/08 07:02:09;;;;;;;143.37;37.23;;;;;;;8.01;55.56;99677.25;5065380;28;20052;-71
2023/03/08 07:04:34;;;;;;;153.13;40.70;;;;;;;8.66;53.49;99672.53;5060450;28;20385;-71
2023/03/08 07:07:00;;;;;;;129.17;37.60;;;;;;;8.49;53.33;99666.84;5065870;28;20032;-71
2023/03/08 07:09:25;;;;;;;121.10;34.50;;;;;;;8.26;54.28;99659.44;5064891;28;20537;-71
2023/03/08 07:11:50;;;;;;;128.70;38.20;;;;;;;8.72;52.84;99666.34;5064720;28;20028;-70
2023/03/08 07:14:16;;;;;;;157.70;39.70;;;;;;;8.30;53.67;99674.97;5066308;28;20028;-69
2023/03/08 07:16:41;;;;;;;146.10;39.20;;;;;;;7.73;56.03;99662.13;5065722;28;20396;-69
2023/03/08 07:19:06;;;;;;;153.73;41.20;;;;;;;7.37;57.13;99664.44;5065083;28;20051;-70
2023/03/08 07:21:32;;;;;;;139.07;36.87;;;;;;;7.36;57.38;99658.34;5062724;28;20077;-70
2023/03/08 07:23:57;;;;;;;112.63;34.80;;;;;;;7.12;58.65;99651.81;5067641;28;20028;-69
2023/03/08 07:26:23;;;;;;;115.93;37.53;;;;;;;8.42;55.25;99657.38;5067278;28;20162;-70
2023/03/08 07:28:50;;;;;;;104.53;38.60;;;;;;;8.51;55.15;99651.19;5067109;28;20119;-71
2023/03/08 07:31:15;;;;;;;125.03;39.67;;;;;;;7.71;56.85;99648.28;5068296;28;20067;-70
2023/03/08 07:33:41;;;;;;;121.00;38.30;;;;;;;7.44;56.47;99651.28;5066483;28;20433;-70
2023/03/08 07:36:06;;;;;;;103.77;37.03;;;;;;;8.27;55.01;99638.56;5067506;28;20028;-71
2023/03/08 07:38:32;;;;;;;113.13;38.60;;;;;;;8.62;54.30;99644.84;5065108;28;20024;-70
2023/03/08 07:40:57;;;;;;;103.80;39.23;;;;;;;8.69;53.79;99634.31;5065280;28;20085;-71
2023/03/08 07:43:23;;;;;;;115.37;39.87;;;;;;;8.19;55.19;99635.28;5067544;28;20027;-71
2023/03/08 07:45:48;;;;;;;112.13;39.07;;;;;;;8.42;55.30;99632.22;5066224;28;20377;-70
2023/03/08 07:48:14;;;;;;;101.30;37.27;;;;;;;7.89;56.80;99636.69;5066224;28;20444;-72
2023/03/08 07:50:39;;;;;;;101.97;35.60;;;;;;;7.78;56.64;99639.50;5055144;28;20434;-70
2023/03/08 07:53:06;;;;;;;89.37;34.37;;;;;;;9.32;53.00;99641.53;5068505;28;20348;-71
2023/03/08 07:55:32;;;;;;;87.90;35.43;;;;;;;7.77;56.02;99642.97;5064976;28;20124;-71
2023/03/08 07:57:57;;;;;;;88.50;34.37;;;;;;;8.31;54.93;99639.34;5066454;28;20111;-72
2023/03/08 08:00:23;;;;;;;87.60;34.47;;;;;;;7.79;55.98;99636.00;5065509;28;20028;-71
2023/03/08 08:02:48;;;;;;;91.13;33.20;;;;;;;8.31;55.22;99624.63;5067387;28;20032;-71
2023/03/08 08:05:14;;;;;;;83.00;32.77;;;;;;;9.28;52.16;99623.41;5068822;28;21027;-71
2023/03/08 08:07:39;;;;;;;85.93;35.20;;;;;;;8.90;53.15;99620.81;5068091;28;20033;-71
2023/03/08 08:10:05;;;;;;;84.63;35.13;;;;;;;7.89;57.56;99627.13;5065858;28;20094;-71
2023/03/08 08:12:32;;;;;;;77.17;31.63;;;;;;;8.69;54.95;99618.66;5066471;28;20028;-70
2023/03/08 08:14:58;;;;;;;89.20;32.30;;;;;;;8.83;53.84;99621.81;5066393;28;20115;-71
2023/03/08 08:17:24;;;;;;;81.73;34.10;;;;;;;8.65;54.42;99621.34;5067214;28;20028;-70
2023/03/08 08:19:50;;;;;;;81.20;31.50;;;;;;;8.47;54.25;99608.69;5065470;28;20250;-70
2023/03/08 08:22:15;;;;;;;80.70;32.43;;;;;;;8.79;53.21;99613.22;5066371;28;20021;-71
2023/03/08 08:24:40;;;;;;;78.77;31.67;;;;;;;8.70;53.73;99613.44;5065692;28;20032;-71
2023/03/08 08:27:06;;;;;;;77.67;31.27;;;;;;;8.58;55.71;99617.13;5060288;28;20038;-70
2023/03/08 08:29:31;;;;;;;75.63;31.93;;;;;;;9.05;53.00;99610.91;5062295;28;20063;-70
2023/03/08 08:31:57;;;;;;;63.63;26.47;;;;;;;8.49;53.61;99617.34;5054222;28;20106;-71
2023/03/08 08:34:23;;;;;;;71.40;28.27;;;;;;;8.78;54.48;99608.06;5066351;28;20032;-71
2023/03/08 08:36:48;;;;;;;68.83;28.47;;;;;;;9.06;52.88;99612.63;5065545;28;20028;-73
2023/03/08 08:39:13;;;;;;;71.43;28.13;;;;;;;9.18;53.19;99604.53;5061762;28;20436;-71
2023/03/08 08:41:39;;;;;;;62.40;27.33;;;;;;;9.02;54.48;99605.78;5059945;28;20029;-69
2023/03/08 08:44:04;;;;;;;57.23;22.13;;;;;;;8.34;54.65;99602.88;5059491;28;20551;-70
2023/03/08 08:46:32;;;;;;;63.97;23.77;;;;;;;9.20;52.89;99592.28;5063797;28;20044;-69
2023/03/08 08:48:58;;;;;;;57.17;24.07;;;;;;;8.88;54.10;99591.31;5061929;28;20140;-70
2023/03/08 08:51:23;;;;;;;57.10;23.90;;;;;;;8.66;56.02;99598.75;5068127;28;20455;-69
2023/03/08 08:53:49;;;;;;;61.20;24.93;;;;;;;9.12;53.56;99592.50;5067748;28;20132;-71
2023/03/08 08:56:17;;;;;;;56.43;23.37;;;;;;;8.65;54.02;99597.03;5070258;28;20090;-70
2023/03/08 08:58:43;;;;;;;65.57;24.30;;;;;;;9.00;54.15;99598.84;5068556;28;20024;-71
2023/03/08 09:01:20;;;;;;;57.07;23.97;;;;;;;8.37;56.37;99586.31;5064620;28;20032;-70
2023/03/08 09:03:49;;;;;;;59.10;25.07;;;;;;;8.38;56.09;99582.81;5085705;28;20198;-70
2023/03/08 09:06:18;;;;;;;56.50;23.83;;;;;;;7.81;57.26;99579.59;5069863;28;20117;-71
2023/03/08 09:08:44;;;;;;;59.97;24.33;;;;;;;8.25;58.81;99572.66;5067533;28;20086;-70
2023/03/08 09:11:10;;;;;;;62.73;25.87;;;;;;;7.60;59.27;99579.09;5069967;28;20032;-69
2023/03/08 09:13:41;;;;;;;63.07;26.50;;;;;;;7.38;61.72;99569.97;5070219;28;20048;-70
2023/03/08 09:16:19;;;;;;;67.77;24.83;;;;;;;7.36;61.19;99556.13;5069113;28;20032;-69
2023/03/08 09:18:45;;;;;;;54.90;21.27;;;;;;;7.80;59.21;99538.84;5067674;28;20028;-70
2023/03/08 09:21:10;;;;;;;56.53;23.43;;;;;;;9.17;56.90;99538.47;5070385;28;20032;-69
2023/03/08 09:23:36;;;;;;;43.40;19.67;;;;;;;7.78;60.77;99519.81;5070449;28;20032;-69
2023/03/08 09:26:03;;;;;;;42.00;18.50;;;;;;;8.13;59.16;99531.25;5069558;28;20380;-70
2023/03/08 09:28:28;;;;;;;43.93;20.00;;;;;;;9.18;57.40;99515.88;5069090;28;20013;-69
2023/03/08 09:30:54;;;;;;;42.17;17.80;;;;;;;8.27;59.98;99518.81;5069282;28;20036;-69
2023/03/08 09:33:19;;;;;;;39.90;18.53;;;;;;;8.55;57.45;99523.44;5068652;28;20028;-70
2023/03/08 09:35:54;;;;;;;34.40;15.50;;;;;;;8.92;56.73;99512.16;5069575;28;20069;-69
2023/03/08 09:38:20;;;;;;;35.67;16.67;;;;;;;8.61;56.63;99512.91;5064845;28;20024;-69
2023/03/08 09:41:09;;;;;;;33.97;16.40;;;;;;;8.70;55.64;99513.59;5067187;28;20523;-69
2023/03/08 09:44:15;;;;;;;35.07;16.07;;;;;;;10.53;52.87;99510.41;5068867;28;20028;-70
2023/03/08 09:46:55;;;;;;;31.13;15.37;;;;;;;10.32;52.64;99509.28;5067684;28;20052;-69
2023/03/08 09:49:29;;;;;;;28.77;14.57;;;;;;;10.18;52.75;99518.38;5056656;28;20020;-69
2023/03/08 09:52:19;;;;;;;31.97;15.70;;;;;;;10.16;52.80;99529.75;5066623;28;20115;-70
2023/03/08 09:54:46;;;;;;;28.87;15.73;;;;;;;10.41;52.85;99536.91;5063796;28;20036;-70
2023/03/08 09:57:27;;;;;;;28.37;13.07;;;;;;;10.34;51.70;99539.72;5061335;28;20148;-69
2023/03/08 09:59:56;;;;;;;27.07;13.23;;;;;;;11.37;50.30;99530.38;5067264;28;20055;-70
2023/03/08 10:02:53;;;;;;;24.80;12.27;;;;;;;10.71;50.17;99516.81;5068592;28;20047;-69
2023/03/08 10:05:41;;;;;;;23.67;11.87;;;;;;;10.74;50.05;99531.56;5069871;28;20040;-70
2023/03/08 10:08:39;;;;;;;29.53;13.93;;;;;;;9.56;52.58;99540.13;5056438;28;20500;-70
2023/03/08 10:11:13;;;;;;;26.47;11.90;;;;;;;10.76;51.39;99527.16;5079992;28;20040;-69
2023/03/08 10:13:41;;;;;;;25.70;11.07;;;;;;;9.44;52.36;99514.38;5065927;28;20494;-70
2023/03/08 10:16:34;;;;;;;22.43;10.73;;;;;;;10.07;51.76;99503.91;5066770;28;20031;-69
2023/03/08 10:19:16;;;;;;;24.08;10.90;;;;;;;9.84;52.92;99500.22;5053799;28;20598;-70
2023/03/08 10:21:44;;;;;;;23.27;11.13;;;;;;;10.27;50.25;99485.91;5056735;28;20016;-69
2023/03/08 10:24:19;;;;;;;19.10;10.33;;;;;;;10.54;51.18;99493.84;5058970;28;20137;-69
2023/03/08 10:26:45;;;;;;;20.63;11.00;;;;;;;9.97;51.29;99478.09;5068301;28;20092;-69
2023/03/08 10:29:13;;;;;;;24.70;10.73;;;;;;;9.78;52.21;99475.16;5068034;28;20032;-69
2023/03/08 10:31:41;;;;;;;22.60;10.60;;;;;;;10.80;49.62;99473.88;5058103;28;20044;-69
2023/03/08 10:34:19;;;;;;;22.30;10.70;;;;;;;10.86;50.54;99478.88;5053653;28;20032;-69
2023/03/08 10:37:06;;;;;;;16.63;9.67;;;;;;;10.19;50.54;99482.66;5065948;28;20024;-69
2023/03/08 10:39:31;;;;;;;16.97;9.30;;;;;;;11.35;49.62;99482.47;5082601;28;20024;-69
2023/03/08 10:42:00;;;;;;;19.20;10.23;;;;;;;11.28;48.47;99490.56;5059497;28;20070;-69
2023/03/08 10:44:39;;;;;;;18.63;9.30;;;;;;;10.49;49.83;99501.81;5056407;28;20498;-69
2023/03/08 10:47:18;;;;;;;20.63;9.60;;;;;;;10.93;48.79;99506.53;5067081;28;20052;-69
2023/03/08 10:49:46;;;;;;;16.20;9.40;;;;;;;10.71;48.19;99508.97;5065316;28;20035;-69
2023/03/08 10:52:24;;;;;;;18.90;9.13;;;;;;;9.46;51.17;99499.50;5068115;28;20117;-69
2023/03/08 10:55:25;;;;;;;19.10;9.70;;;;;;;9.60;51.47;99504.34;5068502;28;20021;-69
2023/03/08 10:58:00;;;;;;;22.10;10.67;;;;;;;10.13;51.08;99493.31;5042703;28;20036;-69
2023/03/08 11:00:31;;;;;;;22.27;9.60;;;;;;;9.43;53.34;99507.44;5065031;28;20151;-69
2023/03/08 11:03:17;;;;;;;21.13;11.23;;;;;;;10.89;48.68;99497.06;5081972;28;20037;-68
2023/03/08 11:06:04;;;;;;;22.47;9.97;;;;;;;11.01;49.29;99477.53;5066731;28;20488;-69
2023/03/08 11:08:34;;;;;;;21.53;10.50;;;;;;;10.73;48.29;99469.72;5067975;28;20438;-68
2023/03/08 11:11:11;;;;;;;18.40;10.20;;;;;;;11.51;47.52;99460.97;5068884;28;20056;-69
2023/03/08 11:13:40;;;;;;;21.73;9.90;;;;;;;10.73;48.46;99462.75;5066950;28;20028;-69
2023/03/08 11:16:36;;;;;;;16.53;9.60;;;;;;;12.01;46.76;99471.41;5066069;28;20032;-68
2023/03/08 11:19:23;;;;;;;19.60;9.53;;;;;;;12.04;46.27;99463.41;5066225;28;20036;-68
2023/03/08 11:22:02;;;;;;;21.80;9.30;;;;;;;10.18;49.36;99457.47;5065042;28;20388;-69
2023/03/08 11:24:51;;;;;;;19.67;9.73;;;;;;;10.98;48.72;99475.88;5065907;28;20016;-68
2023/03/08 11:27:26;;;;;;;17.50;8.63;;;;;;;10.59;47.92;99465.81;5065647;28;20082;-68
2023/03/08 11:29:55;;;;;;;17.97;8.50;;;;;;;10.51;47.72;99470.44;5067005;28;20036;-69
2023/03/08 11:32:30;;;;;;;15.23;9.00;;;;;;;10.42;47.86;99458.50;5060577;28;20025;-70